createdAt,value
2022-08-19T00:01:58.997Z,73.30
2022-08-19T00:04:29.055Z,73.50
2022-08-19T00:06:55.915Z,73.60
2022-08-19T00:09:23.381Z,73.70
2022-08-19T00:11:50.238Z,73.80
2022-08-19T00:14:17.673Z,73.90
2022-08-19T00:16:45.608Z,73.90
2022-08-19T00:19:13.480Z,74.00
2022-08-19T00:21:40.181Z,74.20
2022-08-19T00:24:08.229Z,74.40
2022-08-19T00:26:35.089Z,74.50
2022-08-19T00:29:08.042Z,74.60
2022-08-19T00:31:34.758Z,74.70
2022-08-19T00:34:04.293Z,74.70
2022-08-19T00:36:33.512Z,74.60
2022-08-19T00:39:02.832Z,74.50
2022-08-19T00:41:29.596Z,74.60
2022-08-19T00:44:15.557Z,74.60
2022-08-19T00:46:44.797Z,74.80
2022-08-19T00:49:43.158Z,74.80
2022-08-19T00:52:12.846Z,75.10
2022-08-19T00:54:39.859Z,75.30
2022-08-19T00:57:09.106Z,75.20
2022-08-19T01:00:00.751Z,75.00
2022-08-19T01:02:23.635Z,75.10
2022-08-19T01:04:50.302Z,75.30
2022-08-19T01:07:23.111Z,75.60
2022-08-19T01:09:50.621Z,75.80
2022-08-19T01:12:17.284Z,75.80
2022-08-19T01:14:43.950Z,75.80
2022-08-19T01:17:11.297Z,75.90
2022-08-19T01:19:43.691Z,75.80
2022-08-19T01:22:27.724Z,75.90
2022-08-19T01:24:55.572Z,75.80
2022-08-19T01:27:23.241Z,76.10
2022-08-19T01:29:51.409Z,76.10
2022-08-19T01:32:33.513Z,76.30
2022-08-19T01:35:01.017Z,76.40
2022-08-19T01:37:27.704Z,76.60
2022-08-19T01:39:54.446Z,76.60
2022-08-19T01:42:21.109Z,76.90
2022-08-19T01:44:57.152Z,76.90
2022-08-19T01:47:26.778Z,77.00
2022-08-19T01:49:53.445Z,77.00
2022-08-19T01:52:20.289Z,77.00
2022-08-19T01:54:46.965Z,77.10
2022-08-19T01:57:13.969Z,77.20
2022-08-19T01:59:41.099Z,77.50
2022-08-19T02:02:20.717Z,77.80
2022-08-19T02:04:47.369Z,78.00
2022-08-19T02:07:14.018Z,78.00
2022-08-19T02:09:40.702Z,78.10
2022-08-19T02:12:07.861Z,78.10
2022-08-19T02:14:35.702Z,78.10
2022-08-19T02:17:02.620Z,78.10
2022-08-19T02:19:29.305Z,78.30
2022-08-19T02:21:55.936Z,78.40
2022-08-19T02:24:22.603Z,78.40
2022-08-19T02:26:49.281Z,78.50
2022-08-19T02:29:15.999Z,78.50
2022-08-19T02:31:42.653Z,78.40
2022-08-19T02:34:09.322Z,78.40
2022-08-19T02:36:36.032Z,78.40
2022-08-19T02:39:08.902Z,78.40
2022-08-19T02:41:35.557Z,78.40
2022-08-19T02:44:28.826Z,78.60
2022-08-19T02:46:49.919Z,78.60
2022-08-19T02:49:18.599Z,78.70
2022-08-19T02:51:45.945Z,78.70
2022-08-19T02:54:13.053Z,78.70
2022-08-19T02:56:40.549Z,78.70
2022-08-19T02:59:07.323Z,78.90
2022-08-19T03:01:34.643Z,78.90
2022-08-19T03:04:03.768Z,78.90
2022-08-19T03:06:30.464Z,78.90
2022-08-19T03:08:57.258Z,78.90
2022-08-19T03:11:31.174Z,78.90
2022-08-19T03:13:58.275Z,79.10
2022-08-19T03:16:27.882Z,79.40
2022-08-19T03:18:54.709Z,79.60
2022-08-19T03:21:23.347Z,79.60
2022-08-19T03:23:50.200Z,79.70
2022-08-19T03:26:17.354Z,79.70
2022-08-19T03:28:51.494Z,79.70
2022-08-19T03:31:44.389Z,79.60
2022-08-19T03:34:08.195Z,79.70
2022-08-19T03:36:34.938Z,79.70
2022-08-19T03:39:01.825Z,79.80
2022-08-19T03:41:44.266Z,79.90
2022-08-19T03:44:18.452Z,79.90
2022-08-19T03:46:46.660Z,80.00
2022-08-19T03:49:14.292Z,80.00
2022-08-19T03:51:41.883Z,80.10
2022-08-19T03:54:11.372Z,80.10
2022-08-19T03:56:38.426Z,80.20
2022-08-19T03:59:06.165Z,80.40
2022-08-19T04:01:35.052Z,80.00
2022-08-19T04:04:02.304Z,80.00
2022-08-19T04:06:31.766Z,80.10
2022-08-19T04:08:59.285Z,80.30
2022-08-19T04:11:43.211Z,80.30
2022-08-19T04:14:18.082Z,80.50
2022-08-19T04:16:44.924Z,80.70
2022-08-19T04:19:11.854Z,80.80
2022-08-19T04:21:38.513Z,80.90
2022-08-19T04:24:06.765Z,81.00
2022-08-19T04:26:38.403Z,81.10
2022-08-19T04:29:12.213Z,81.40
2022-08-19T04:31:39.826Z,81.60
2022-08-19T04:34:07.726Z,81.80
2022-08-19T04:36:35.925Z,81.80
2022-08-19T04:39:08.447Z,82.00
2022-08-19T04:41:35.283Z,82.00
2022-08-19T04:44:04.392Z,82.00
2022-08-19T04:46:39.970Z,82.10
2022-08-19T04:49:12.996Z,82.30
2022-08-19T04:51:41.896Z,82.40
2022-08-19T04:54:08.557Z,82.50
2022-08-19T04:56:35.295Z,82.60
2022-08-19T04:59:01.915Z,82.50
2022-08-19T05:01:28.903Z,82.50
2022-08-19T05:03:56.866Z,82.50
2022-08-19T05:06:23.800Z,82.50
2022-08-19T05:08:50.528Z,82.50
2022-08-19T05:11:26.314Z,82.50
2022-08-19T05:13:53.442Z,82.60
2022-08-19T05:16:21.390Z,82.50
2022-08-19T05:18:48.320Z,82.60
2022-08-19T05:21:17.001Z,82.70
2022-08-19T05:23:43.766Z,82.70
2022-08-19T05:26:10.476Z,82.70
2022-08-19T05:28:37.117Z,82.70
2022-08-19T05:31:06.471Z,82.80
2022-08-19T05:33:33.111Z,82.90
2022-08-19T05:35:59.750Z,82.90
2022-08-19T05:38:26.467Z,83.00
2022-08-19T05:40:53.137Z,83.10
2022-08-19T05:43:19.810Z,83.20
2022-08-19T05:45:46.571Z,83.20
2022-08-19T05:48:13.493Z,83.30
2022-08-19T05:50:40.970Z,83.40
2022-08-19T05:53:07.906Z,83.40
2022-08-19T05:55:34.678Z,83.40
2022-08-19T05:58:01.333Z,83.30
2022-08-19T06:00:28.041Z,83.40
2022-08-19T06:02:54.812Z,83.40
2022-08-19T06:05:21.638Z,83.30
2022-08-19T06:07:48.369Z,83.40
2022-08-19T06:10:15.307Z,83.40
2022-08-19T06:12:42.008Z,83.30
2022-08-19T06:15:14.091Z,83.30
2022-08-19T06:17:40.954Z,83.30
2022-08-19T06:20:09.559Z,83.40
2022-08-19T06:22:40.542Z,83.40
2022-08-19T06:25:07.757Z,83.40
2022-08-19T06:27:34.414Z,83.40
2022-08-19T06:30:02.073Z,83.20
2022-08-19T06:32:28.772Z,83.20
2022-08-19T06:34:55.536Z,83.10
2022-08-19T06:37:22.254Z,83.10
2022-08-19T06:39:49.607Z,83.00
2022-08-19T06:42:16.530Z,82.90
2022-08-19T06:44:48.301Z,82.80
2022-08-19T06:47:23.835Z,82.80
2022-08-19T06:49:54.151Z,82.70
2022-08-19T06:52:20.803Z,82.70
2022-08-19T06:54:56.552Z,82.60
2022-08-19T06:57:26.669Z,82.40
2022-08-19T06:59:53.429Z,82.40
2022-08-19T07:02:24.364Z,82.50
2022-08-19T07:04:52.726Z,82.40
2022-08-19T07:07:21.551Z,82.30
2022-08-19T07:09:52.264Z,82.20
2022-08-19T07:12:27.226Z,82.10
2022-08-19T07:14:53.861Z,81.90
2022-08-19T07:17:21.287Z,81.70
2022-08-19T07:19:48.414Z,81.50
2022-08-19T07:22:18.450Z,81.20
2022-08-19T07:24:51.579Z,81.00
2022-08-19T07:27:18.728Z,80.60
2022-08-19T07:29:57.181Z,80.30
2022-08-19T07:32:25.062Z,79.90
2022-08-19T07:34:52.223Z,79.70
2022-08-19T07:37:32.022Z,79.70
2022-08-19T07:40:01.351Z,79.70
2022-08-19T07:42:38.943Z,79.70
2022-08-19T07:45:16.718Z,79.50
2022-08-19T07:47:49.776Z,79.40
2022-08-19T07:50:31.603Z,79.30
2022-08-19T07:53:06.793Z,79.10
2022-08-19T07:55:41.794Z,79.10
2022-08-19T07:58:10.558Z,79.00
2022-08-19T08:00:37.582Z,79.00
2022-08-19T08:03:04.399Z,79.00
2022-08-19T08:05:31.045Z,78.70
2022-08-19T08:07:57.765Z,78.80
2022-08-19T08:10:24.700Z,78.70
2022-08-19T08:13:09.508Z,78.60
2022-08-19T08:15:42.690Z,78.80
2022-08-19T08:18:12.009Z,79.00
2022-08-19T08:20:39.129Z,79.20
2022-08-19T08:23:05.899Z,79.10
2022-08-19T08:25:34.210Z,79.10
2022-08-19T08:28:01.258Z,79.00
2022-08-19T08:30:31.003Z,78.80
2022-08-19T08:32:59.439Z,78.70
2022-08-19T08:35:26.126Z,78.40
2022-08-19T08:37:53.886Z,78.30
2022-08-19T08:40:29.743Z,78.30
2022-08-19T08:42:58.342Z,78.40
2022-08-19T08:45:25.089Z,78.40
2022-08-19T08:47:52.615Z,78.60
2022-08-19T08:50:43.622Z,78.70
2022-08-19T08:53:10.301Z,78.80
2022-08-19T08:55:37.391Z,78.80
2022-08-19T08:58:27.630Z,78.80
2022-08-19T09:00:54.318Z,78.90
2022-08-19T09:03:25.772Z,79.00
2022-08-19T09:06:12.631Z,78.90
2022-08-19T09:09:03.828Z,78.60
2022-08-19T09:11:42.603Z,78.60
2022-08-19T09:14:47.223Z,78.70
2022-08-19T09:17:06.625Z,78.70
2022-08-19T09:19:33.300Z,78.70
2022-08-19T09:22:00.428Z,78.50
2022-08-19T09:24:31.263Z,77.70
2022-08-19T09:26:58.041Z,76.80
2022-08-19T09:29:24.764Z,76.00
2022-08-19T09:31:51.440Z,75.20
2022-08-19T09:34:21.282Z,75.60
2022-08-19T09:36:48.987Z,75.30
2022-08-19T09:39:16.409Z,73.90
2022-08-19T09:41:47.604Z,73.10
2022-08-19T09:44:15.737Z,72.50
2022-08-19T09:46:42.633Z,71.40
2022-08-19T09:49:09.279Z,70.70
2022-08-19T09:51:35.968Z,69.20
2022-08-19T09:54:05.186Z,66.60
2022-08-19T09:56:32.227Z,65.50
2022-08-19T09:59:00.087Z,64.40
2022-08-19T10:01:31.279Z,64.00
2022-08-19T10:03:59.052Z,64.30
2022-08-19T10:06:45.626Z,64.00
2022-08-19T10:09:13.693Z,63.50
2022-08-19T10:11:45.301Z,63.70
2022-08-19T10:14:17.821Z,64.30
2022-08-19T10:16:44.525Z,64.80
2022-08-19T10:19:11.192Z,65.30
2022-08-19T10:21:37.840Z,66.00
2022-08-19T10:24:07.331Z,66.20
2022-08-19T10:26:38.226Z,66.40
2022-08-19T10:29:05.232Z,66.80
2022-08-19T10:32:00.656Z,67.00
2022-08-19T10:34:27.629Z,67.00
2022-08-19T10:36:56.367Z,67.60
2022-08-19T10:39:30.603Z,67.90
2022-08-19T10:41:57.540Z,68.00
2022-08-19T10:44:24.280Z,68.20
2022-08-19T10:46:51.009Z,68.20
2022-08-19T10:49:17.803Z,68.30
2022-08-19T10:51:48.031Z,68.50
2022-08-19T10:54:15.743Z,68.90
2022-08-19T10:56:42.581Z,68.80
2022-08-19T10:59:09.302Z,68.80
2022-08-19T11:01:36.275Z,69.00
2022-08-19T11:04:05.774Z,69.40
2022-08-19T11:06:32.909Z,70.00
2022-08-19T11:08:59.596Z,70.80
2022-08-19T11:11:29.117Z,71.40
2022-08-19T11:13:55.993Z,72.00
2022-08-19T11:16:23.982Z,72.10
2022-08-19T11:18:55.189Z,71.90
2022-08-19T11:21:33.932Z,71.90
2022-08-19T11:24:02.188Z,71.60
2022-08-19T11:26:29.861Z,71.20
2022-08-19T11:28:57.267Z,70.90
2022-08-19T11:31:28.934Z,70.70
2022-08-19T11:33:59.714Z,70.50
2022-08-19T11:36:26.501Z,70.80
2022-08-19T11:38:53.253Z,70.60
2022-08-19T11:41:20.805Z,70.00
2022-08-19T11:43:47.658Z,69.60
2022-08-19T11:46:15.120Z,69.40
2022-08-19T11:48:44.986Z,69.30
2022-08-19T11:51:14.102Z,69.20
2022-08-19T11:53:42.036Z,69.20
2022-08-19T11:56:09.168Z,68.80
2022-08-19T11:58:36.576Z,68.00
2022-08-19T12:01:07.268Z,67.50
2022-08-19T12:03:34.185Z,67.50
2022-08-19T12:06:05.863Z,67.60
2022-08-19T12:08:32.594Z,67.00
2022-08-19T12:10:59.290Z,66.60
2022-08-19T12:13:25.958Z,65.90
2022-08-19T12:15:52.685Z,65.50
2022-08-19T12:18:19.382Z,65.50
2022-08-19T12:20:46.069Z,65.00
2022-08-19T12:23:12.842Z,64.70
2022-08-19T12:25:44.091Z,64.40
2022-08-19T12:28:13.676Z,64.50
2022-08-19T12:30:40.419Z,64.80
2022-08-19T12:33:07.068Z,64.10
2022-08-19T12:35:43.995Z,63.00
2022-08-19T12:38:12.391Z,61.50
2022-08-19T12:40:39.598Z,60.90
2022-08-19T12:43:06.536Z,60.40
2022-08-19T12:45:34.403Z,60.00
2022-08-19T12:48:01.711Z,59.70
2022-08-19T12:50:51.357Z,59.10
2022-08-19T12:53:19.152Z,58.20
2022-08-19T12:55:45.817Z,57.40
2022-08-19T12:58:12.559Z,56.90
2022-08-19T13:00:39.463Z,56.50
2022-08-19T13:03:08.808Z,56.60
2022-08-19T13:05:35.562Z,56.80
2022-08-19T13:08:02.411Z,55.80
2022-08-19T13:10:33.317Z,55.10
2022-08-19T13:12:59.963Z,55.30
2022-08-19T13:15:26.634Z,56.10
2022-08-19T13:17:54.078Z,57.00
2022-08-19T13:20:21.196Z,57.80
2022-08-19T13:22:48.088Z,58.10
2022-08-19T13:25:15.104Z,58.00
2022-08-19T13:27:41.833Z,58.00
2022-08-19T13:30:09.854Z,58.60
2022-08-19T13:32:36.523Z,58.40
2022-08-19T13:35:04.180Z,58.10
2022-08-19T13:37:30.961Z,57.80
2022-08-19T13:39:57.718Z,57.60
2022-08-19T13:42:24.519Z,57.30
2022-08-19T13:44:51.193Z,57.20
2022-08-19T13:47:17.862Z,57.30
2022-08-19T13:49:44.539Z,57.80
2022-08-19T13:52:11.181Z,58.40
2022-08-19T13:54:37.879Z,58.80
2022-08-19T13:57:04.726Z,59.20
2022-08-19T13:59:31.491Z,59.60
2022-08-19T14:02:10.238Z,60.20
2022-08-19T14:04:36.945Z,60.50
2022-08-19T14:07:03.679Z,60.80
2022-08-19T14:09:35.070Z,60.60
2022-08-19T14:12:01.684Z,59.90
2022-08-19T14:14:28.339Z,59.60
2022-08-19T14:16:54.943Z,58.70
2022-08-19T14:19:21.705Z,58.10
2022-08-19T14:21:48.410Z,58.00
2022-08-19T14:24:15.051Z,58.20
2022-08-19T14:26:41.683Z,58.80
2022-08-19T14:29:08.834Z,59.10
2022-08-19T14:31:35.485Z,59.30
2022-08-19T14:34:02.138Z,59.50
2022-08-19T14:36:28.786Z,60.00
2022-08-19T14:38:55.453Z,60.00
2022-08-19T14:41:23.169Z,60.20
2022-08-19T14:43:51.306Z,60.60
2022-08-19T14:46:22.700Z,60.70
2022-08-19T14:48:50.684Z,61.00
2022-08-19T14:51:19.235Z,61.70
2022-08-19T14:53:46.097Z,62.30
2022-08-19T14:56:14.526Z,62.90
2022-08-19T14:58:41.759Z,63.10
2022-08-19T15:01:08.816Z,63.10
2022-08-19T15:03:35.461Z,63.50
2022-08-19T15:06:03.305Z,63.80
2022-08-19T15:08:30.635Z,64.10
2022-08-19T15:10:57.890Z,64.40
2022-08-19T15:13:27.536Z,64.60
2022-08-19T15:15:54.586Z,65.60
2022-08-19T15:18:21.403Z,66.60
2022-08-19T15:20:48.752Z,67.40
2022-08-19T15:23:17.236Z,68.10
2022-08-19T15:25:43.992Z,68.80
2022-08-19T15:28:11.205Z,69.60
2022-08-19T15:30:37.980Z,70.40
2022-08-19T15:33:04.809Z,71.60
2022-08-19T15:35:31.534Z,72.30
2022-08-19T15:37:58.254Z,73.30
2022-08-19T15:40:25.911Z,73.60
2022-08-19T15:42:52.653Z,73.80
2022-08-19T15:45:20.000Z,74.10
2022-08-19T15:47:46.664Z,74.30
2022-08-19T15:50:18.427Z,74.00
2022-08-19T15:52:49.533Z,73.90
2022-08-19T15:55:32.756Z,73.50
2022-08-19T15:58:02.196Z,73.20
2022-08-19T16:00:28.904Z,72.90
2022-08-19T16:02:55.581Z,72.10
2022-08-19T16:05:24.962Z,72.10
2022-08-19T16:07:51.541Z,71.80
2022-08-19T16:10:26.387Z,71.40
2022-08-19T16:12:54.959Z,71.20
2022-08-19T16:15:21.796Z,71.10
2022-08-19T16:17:56.716Z,71.10
2022-08-19T16:20:25.537Z,71.10
2022-08-19T16:22:53.852Z,71.10
2022-08-19T16:25:20.518Z,70.70
2022-08-19T16:28:06.321Z,70.80
2022-08-19T16:30:33.794Z,70.90
2022-08-19T16:33:00.438Z,70.90
2022-08-19T16:35:27.134Z,71.20
2022-08-19T16:37:53.930Z,71.00
2022-08-19T16:40:20.771Z,70.90
2022-08-19T16:42:47.506Z,71.10
2022-08-19T16:45:14.186Z,71.30
2022-08-19T16:47:40.860Z,71.30
2022-08-19T16:50:07.785Z,71.00
2022-08-19T16:52:34.785Z,70.80
2022-08-19T16:55:01.460Z,70.90
2022-08-19T16:57:28.090Z,70.70
2022-08-19T16:59:54.863Z,70.70
2022-08-19T17:02:22.312Z,70.90
2022-08-19T17:04:58.363Z,71.00
2022-08-19T17:07:27.193Z,70.60
2022-08-19T17:09:53.890Z,70.30
2022-08-19T17:12:22.314Z,70.40
2022-08-19T17:14:57.287Z,70.50
2022-08-19T17:17:28.434Z,70.30
2022-08-19T17:19:55.886Z,70.10
2022-08-19T17:22:22.560Z,69.80
2022-08-19T17:24:49.229Z,69.40
2022-08-19T17:27:15.888Z,68.90
2022-08-19T17:29:46.792Z,68.80
2022-08-19T17:32:14.126Z,68.20
2022-08-19T17:34:40.746Z,68.00
2022-08-19T17:37:07.434Z,67.60
2022-08-19T17:39:37.204Z,67.50
2022-08-19T17:42:06.767Z,67.50
2022-08-19T17:44:35.061Z,67.70
2022-08-19T17:47:01.841Z,68.40
2022-08-19T17:49:28.526Z,69.00
2022-08-19T17:51:55.161Z,69.60
2022-08-19T17:54:21.849Z,70.00
2022-08-19T17:56:48.589Z,70.30
2022-08-19T17:59:15.522Z,70.60
2022-08-19T18:01:53.429Z,70.60
2022-08-19T18:04:22.131Z,70.80
2022-08-19T18:06:53.746Z,70.90
2022-08-19T18:09:25.311Z,71.10
2022-08-19T18:11:53.817Z,71.10
2022-08-19T18:14:25.602Z,70.80
2022-08-19T18:16:58.100Z,70.50
2022-08-19T18:19:25.319Z,70.10
2022-08-19T18:21:56.812Z,69.10
2022-08-19T18:24:23.486Z,67.90
2022-08-19T18:26:50.131Z,67.30
2022-08-19T18:29:16.762Z,66.60
2022-08-19T18:31:43.442Z,66.60
2022-08-19T18:34:10.448Z,66.60
2022-08-19T18:36:53.475Z,67.40
2022-08-19T18:39:20.751Z,68.40
2022-08-19T18:41:47.563Z,69.10
2022-08-19T18:44:14.185Z,69.00
2022-08-19T18:46:40.818Z,69.30
2022-08-19T18:49:08.372Z,69.70
2022-08-19T18:51:35.148Z,69.40
2022-08-19T18:54:01.777Z,69.30
2022-08-19T18:56:29.589Z,69.30
2022-08-19T18:58:56.210Z,69.50
2022-08-19T19:01:29.435Z,69.70
2022-08-19T19:03:58.186Z,69.80
2022-08-19T19:06:26.718Z,69.90
2022-08-19T19:08:53.572Z,69.80
2022-08-19T19:11:29.699Z,69.80
2022-08-19T19:13:56.653Z,70.40
2022-08-19T19:16:24.654Z,71.00
2022-08-19T19:18:51.493Z,71.60
2022-08-19T19:21:19.312Z,71.90
2022-08-19T19:23:46.083Z,72.30
2022-08-19T19:26:13.087Z,72.20
2022-08-19T19:28:40.443Z,72.60
2022-08-19T19:31:07.114Z,73.10
2022-08-19T19:33:33.756Z,73.50
2022-08-19T19:36:00.385Z,73.80
2022-08-19T19:38:27.038Z,73.60
2022-08-19T19:40:53.717Z,73.80
2022-08-19T19:43:20.411Z,73.90
2022-08-19T19:45:47.430Z,73.50
2022-08-19T19:48:14.225Z,73.60
2022-08-19T19:50:41.079Z,74.40
2022-08-19T19:53:07.745Z,74.60
2022-08-19T19:55:34.398Z,74.90
2022-08-19T19:58:01.042Z,75.50
2022-08-19T20:00:28.690Z,75.60
2022-08-19T20:02:55.348Z,75.70
2022-08-19T20:05:22.176Z,76.10
2022-08-19T20:07:49.612Z,76.30
2022-08-19T20:10:16.271Z,76.50
2022-08-19T20:12:42.909Z,76.50
2022-08-19T20:15:09.712Z,76.70
2022-08-19T20:17:36.478Z,76.50
2022-08-19T20:20:03.331Z,76.50
2022-08-19T20:22:33.778Z,76.40
2022-08-19T20:25:00.720Z,76.70
2022-08-19T20:27:27.353Z,76.70
2022-08-19T20:29:57.929Z,76.90
2022-08-19T20:32:24.566Z,76.90
2022-08-19T20:34:51.257Z,76.80
2022-08-19T20:37:17.899Z,76.60
2022-08-19T20:39:44.579Z,76.80
2022-08-19T20:42:11.250Z,76.90
2022-08-19T20:44:37.980Z,77.00
2022-08-19T20:47:04.933Z,77.30
2022-08-19T20:49:32.156Z,77.40
2022-08-19T20:51:58.829Z,77.90
2022-08-19T20:54:25.562Z,78.50
2022-08-19T20:56:52.206Z,78.60
2022-08-19T20:59:19.362Z,79.00
2022-08-19T21:01:46.450Z,79.30
2022-08-19T21:04:13.087Z,79.90
2022-08-19T21:06:39.741Z,80.60
2022-08-19T21:09:10.571Z,81.20
2022-08-19T21:11:37.194Z,81.50
2022-08-19T21:14:03.847Z,81.20
2022-08-19T21:16:30.522Z,81.20
2022-08-19T21:18:57.153Z,81.60
2022-08-19T21:21:23.789Z,81.60
2022-08-19T21:23:50.509Z,81.80
2022-08-19T21:26:17.286Z,81.80
2022-08-19T21:28:43.915Z,82.00
2022-08-19T21:31:10.638Z,82.10
2022-08-19T21:33:37.485Z,82.10
2022-08-19T21:36:04.669Z,82.50
2022-08-19T21:38:31.573Z,82.70
2022-08-19T21:40:58.214Z,82.60
2022-08-19T21:43:25.570Z,82.70
2022-08-19T21:45:52.262Z,82.70
2022-08-19T21:48:18.928Z,82.50
2022-08-19T21:50:48.202Z,82.70
2022-08-19T21:53:17.471Z,82.70
2022-08-19T21:55:44.520Z,82.80
2022-08-19T21:58:11.231Z,83.10
2022-08-19T22:00:37.994Z,82.60
2022-08-19T22:03:05.083Z,82.60
2022-08-19T22:05:31.857Z,82.70
2022-08-19T22:07:59.227Z,83.00
2022-08-19T22:10:31.821Z,83.10
2022-08-19T22:12:58.458Z,83.30
2022-08-19T22:15:25.360Z,83.50
2022-08-19T22:17:52.043Z,83.70
2022-08-19T22:20:21.809Z,83.90
2022-08-19T22:22:54.395Z,84.10
2022-08-19T22:25:34.755Z,84.20
2022-08-19T22:28:02.115Z,84.30
2022-08-19T22:30:33.318Z,84.40
2022-08-19T22:33:01.418Z,84.70
2022-08-19T22:35:30.838Z,84.50
2022-08-19T22:38:00.750Z,84.40
2022-08-19T22:40:28.161Z,84.90
2022-08-19T22:43:02.241Z,84.30
2022-08-19T22:45:29.199Z,84.30
2022-08-19T22:47:56.031Z,84.50
2022-08-19T22:50:23.144Z,84.40
2022-08-19T22:52:52.244Z,84.60
2022-08-19T22:55:19.084Z,84.50
2022-08-19T22:57:45.756Z,84.60
2022-08-19T23:00:12.908Z,84.50
2022-08-19T23:02:39.547Z,84.50
2022-08-19T23:05:22.000Z,84.60
2022-08-19T23:07:54.067Z,84.80
2022-08-19T23:10:27.324Z,84.90
2022-08-19T23:12:55.275Z,84.90
2022-08-19T23:15:28.692Z,84.90
2022-08-19T23:17:56.804Z,84.90
2022-08-19T23:20:23.921Z,84.90
2022-08-19T23:22:50.579Z,84.90
2022-08-19T23:25:19.388Z,84.90
2022-08-19T23:27:46.095Z,84.80
2022-08-19T23:30:12.804Z,84.90
2022-08-19T23:32:39.466Z,84.90
2022-08-19T23:35:06.368Z,85.00
2022-08-19T23:37:33.041Z,85.00
2022-08-19T23:39:59.722Z,85.00
2022-08-19T23:42:26.425Z,85.10
2022-08-19T23:44:53.140Z,85.30
2022-08-19T23:47:20.417Z,85.50
2022-08-19T23:49:47.061Z,85.50
2022-08-19T23:52:13.718Z,85.50
2022-08-19T23:54:42.944Z,85.40
2022-08-19T23:57:13.103Z,85.60
2022-08-19T23:59:40.726Z,85.70
